CYYU

Kapuskasing Airport

Kapuskasing, Ontario, Canada
METAR CYYU 172200Z 35007G16KT 300V010 15SM BKN058 19/05 A3003 RMK SC5 SLP175 DENSITY ALT 1300FT
Observed Flight Rules
Jul-17 @ 22:00 UTC (51 minutes ago) Visual Flight Rules
Wind Visibility Clouds
350° at 7 knots
 Gusting to 16 knots
15 miles
  • Broken at 5,800' AGL
Temperatures Readings
Current 19°C / 66°F
Dewpoint 5°C / 41°F
Humidity 40%
Altimeter 30.03" Hg
Pressure 1017.5 hPa
Elevation 227
METAR CYYU 172200Z 35007G16KT 300V010 15SM BKN058 19/05 A3003 RMK SC5 SLP175 DENSITY ALT 1300FT
Observed Flight Rules
Jul-17 @ 22:00 UTC
(51 minutes ago)
VFR
Wind Visibility
350° at 7 knots
 Gusting to 16 knots
15 miles
Clouds
  • Broken at 5,800' AGL
Temperature Dewpoint
19°C / 66°F 5°C / 41°F
Humidity Altimeter Pressure
40% 30.03" Hg 1017.5 hPa